»·PEaware :: N3452E KRNM-KOXR

N3452E :: KRNM-KOXR

FLIGHT INFORMATION

Flight Status: Arrived
Operator: Privately registered:
United States
More flights under this callsign
Pilot: John C. (27555)
Aircraft: BEECH AIRCRAFT DEBONAIR BONANZA
(BE33)
More flights by this aircraft type
Origin: KRNM Ramona
United States
Destination: KOXR Oxnard
United States
More flights between these airports :: More routes between these airports
Route: +ROBNN V208 OCN V23 SLI SLI272R SMO125R SMO VNY
File this flight plan on PilotEdge
Remarks: TEC Route SANP31
Altitude:
(Current/Filed)
6,000ft
Speed:
(Current/Filed)
150kts
Departed: 16-Oct-20 07:01 PM
Arrived: 16-Oct-20 08:01 PM
Distance/Time
Traveled:
134nm/1:00
Distance/Time
To Go:
Arrived

Flight Plot

Page will automatically refresh every two minutes.

Flight plan parsing failed; only flown route is shown


Map Options




Map Legend


Flown Route
Filed Route
Departure Airport
Arrival Airport
Navaid (VOR, NDB)
Fix

Horizontal Profiles

Position Reports

Time Latitude Longitude Heading Altitude Ground
Speed
16-Oct-20 18:44 33.039293 -116.908022 275 1399ft 0kts
16-Oct-20 18:45 33.039293 -116.908022 275 1399ft 0kts
16-Oct-20 18:46 33.039293 -116.908022 275 1399ft 0kts
16-Oct-20 18:47 33.039293 -116.908022 275 1399ft 0kts
16-Oct-20 18:48 33.039293 -116.908022 275 1399ft 0kts
16-Oct-20 18:49 33.039293 -116.908022 275 1399ft 0kts
16-Oct-20 18:50 33.039293 -116.908022 275 1399ft 0kts
16-Oct-20 18:51 33.039293 -116.908022 275 1399ft 0kts
16-Oct-20 18:52 33.039293 -116.908022 275 1399ft 0kts
16-Oct-20 18:53 33.039293 -116.908022 275 1399ft 0kts
16-Oct-20 18:54 33.039293 -116.908022 275 1399ft 0kts
16-Oct-20 18:55 33.039293 -116.908022 275 1399ft 0kts
16-Oct-20 18:56 33.039120 -116.908135 188 1399ft 0kts
16-Oct-20 18:57 33.038714 -116.907554 106 1399ft 5kts
16-Oct-20 18:58 33.038489 -116.907266 174 1399ft 0kts
16-Oct-20 18:58 33.038489 -116.907266 174 1399ft 0kts
16-Oct-20 18:59 33.038065 -116.907645 266 1399ft 10kts
16-Oct-20 19:00 33.041755 -116.931716 276 1817ft 104kts
16-Oct-20 19:01 33.045625 -116.965917 277 2981ft 106kts
16-Oct-20 19:02 33.049526 -117.001000 277 4084ft 106kts
16-Oct-20 19:03 33.053336 -117.034936 283 5165ft 100kts
16-Oct-20 19:04 33.078195 -117.053152 334 5856ft 124kts
16-Oct-20 19:05 33.115081 -117.072566 337 5907ft 158kts
16-Oct-20 19:06 33.157594 -117.091003 341 5898ft 163kts
16-Oct-20 19:07 33.200628 -117.109207 333 5887ft 164kts
16-Oct-20 19:08 33.210957 -117.161068 277 5890ft 167kts
16-Oct-20 19:09 33.216915 -117.216281 279 5890ft 166kts
16-Oct-20 19:10 33.223205 -117.270162 279 6000ft 164kts
16-Oct-20 19:11 33.229603 -117.324349 279 6000ft 164kts
16-Oct-20 19:12 33.235953 -117.378401 278 5999ft 163kts
16-Oct-20 19:13 33.251323 -117.427629 311 6000ft 162kts
16-Oct-20 19:14 33.282710 -117.466416 314 6007ft 162kts
16-Oct-20 19:15 33.314874 -117.504268 314 6008ft 162kts
16-Oct-20 19:16 33.346449 -117.541154 314 6008ft 162kts
16-Oct-20 19:17 33.379020 -117.579189 314 6008ft 162kts
16-Oct-20 19:18 33.411451 -117.617114 315 6007ft 162kts
16-Oct-20 19:19 33.443828 -117.655029 314 6007ft 162kts
16-Oct-20 19:20 33.476222 -117.693012 315 6004ft 162kts
16-Oct-20 19:21 33.510288 -117.728619 320 6002ft 162kts
16-Oct-20 19:22 33.544789 -117.763746 320 6001ft 163kts
16-Oct-20 19:23 33.579350 -117.799090 320 6000ft 163kts
16-Oct-20 19:24 33.614043 -117.834618 320 6000ft 163kts
16-Oct-20 19:25 33.648700 -117.870115 320 5999ft 163kts
16-Oct-20 19:26 33.682229 -117.906736 305 6004ft 164kts
16-Oct-20 19:27 33.708729 -117.951671 306 5999ft 164kts
16-Oct-20 19:28 33.731736 -117.998962 292 5999ft 165kts
16-Oct-20 19:29 33.747721 -118.050863 290 5999ft 165kts
16-Oct-20 19:30 33.765936 -118.101665 295 5999ft 165kts
16-Oct-20 19:31 33.784778 -118.151744 295 5998ft 163kts
16-Oct-20 19:32 33.803720 -118.201390 295 5990ft 162kts
16-Oct-20 19:33 33.823311 -118.250461 296 5988ft 161kts
16-Oct-20 19:34 33.853816 -118.288935 318 5990ft 161kts
16-Oct-20 19:35 33.887355 -118.324509 317 5990ft 161kts
16-Oct-20 19:36 33.920787 -118.360327 317 5989ft 161kts
16-Oct-20 19:37 33.954284 -118.396348 316 5992ft 161kts
16-Oct-20 19:38 33.987920 -118.432699 319 5982ft 165kts
16-Oct-20 19:39 34.023434 -118.466860 346 5972ft 163kts
16-Oct-20 19:40 34.068190 -118.472059 1 5997ft 161kts
16-Oct-20 19:41 34.104840 -118.497821 312 5996ft 165kts
16-Oct-20 19:42 34.126745 -118.546082 287 5838ft 175kts
16-Oct-20 19:43 34.139930 -118.603054 287 5288ft 175kts
16-Oct-20 19:44 34.152868 -118.658640 286 4514ft 165kts
16-Oct-20 19:45 34.164458 -118.708927 286 3979ft 136kts
16-Oct-20 19:46 34.174986 -118.754707 286 3990ft 142kts
16-Oct-20 19:47 34.185707 -118.800367 286 3988ft 136kts
16-Oct-20 19:48 34.195009 -118.840939 285 3990ft 117kts
16-Oct-20 19:49 34.197699 -118.877714 271 4005ft 103kts
16-Oct-20 19:50 34.198018 -118.912045 271 3990ft 100kts
16-Oct-20 19:51 34.198360 -118.945677 271 3990ft 99kts
16-Oct-20 19:52 34.198711 -118.979291 270 3960ft 103kts
16-Oct-20 19:53 34.199141 -119.014332 270 3180ft 99kts
16-Oct-20 19:54 34.199438 -119.046608 270 2597ft 94kts
16-Oct-20 19:55 34.199696 -119.078008 270 2075ft 97kts
16-Oct-20 19:56 34.200000 -119.110974 271 1517ft 93kts
16-Oct-20 19:57 34.200355 -119.141954 271 1046ft 92kts
16-Oct-20 19:58 34.200578 -119.172977 271 507ft 92kts
16-Oct-20 19:59 34.200755 -119.201714 271 49ft 74kts
16-Oct-20 20:00 34.200114 -119.211511 188 45ft 3kts
16-Oct-20 20:01 34.199528 -119.207304 138 45ft 6kts
16-Oct-20 20:02 34.199119 -119.206758 93 45ft 0kts
16-Oct-20 20:03 34.199119 -119.206758 93 45ft 0kts
16-Oct-20 20:04 34.199119 -119.206758 93 45ft 0kts
16-Oct-20 20:05 34.199119 -119.206758 93 45ft 0kts
16-Oct-20 20:06 34.199119 -119.206758 93 45ft 0kts
16-Oct-20 20:07 34.199119 -119.206758 93 45ft 0kts
16-Oct-20 20:08 34.199119 -119.206758 93 45ft 0kts
16-Oct-20 20:09 34.199119 -119.206758 93 45ft 0kts
16-Oct-20 20:10 34.199119 -119.206758 93 45ft 0kts
16-Oct-20 20:11 34.199119 -119.206758 93 45ft 0kts
16-Oct-20 20:12 34.199119 -119.206758 93 45ft 0kts
16-Oct-20 20:13 34.199119 -119.206758 93 45ft 0kts
16-Oct-20 20:14 34.199119 -119.206758 93 45ft 0kts

Navigation Log

Ident Type
Flight plan parsing failed, navigation log unavailable